createdAt,value
2018-05-01T00:00:17.943Z,8.63
2018-05-01T00:01:23.465Z,8.55
2018-05-01T00:02:28.969Z,8.54
2018-05-01T00:03:34.475Z,8.55
2018-05-01T00:04:39.982Z,8.53
2018-05-01T00:05:45.497Z,8.53
2018-05-01T00:06:51.008Z,8.47
2018-05-01T00:07:56.509Z,8.50
2018-05-01T00:09:02.019Z,8.47
2018-05-01T00:10:07.530Z,8.54
2018-05-01T00:11:13.042Z,8.42
2018-05-01T00:12:18.555Z,8.55
2018-05-01T00:13:24.060Z,8.28
2018-05-01T00:14:29.572Z,8.30
2018-05-01T00:15:35.082Z,8.30
2018-05-01T00:16:40.589Z,8.28
2018-05-01T00:17:46.097Z,8.30
2018-05-01T00:19:12.615Z,8.29
2018-05-01T00:19:57.117Z,8.32
2018-05-01T00:21:02.626Z,8.30
2018-05-01T00:22:08.135Z,8.22
2018-05-01T00:23:13.648Z,8.28
2018-05-01T00:24:19.154Z,8.28
2018-05-01T00:25:24.672Z,8.30
2018-05-01T00:26:30.175Z,8.25
2018-05-01T00:27:35.689Z,8.25
2018-05-01T00:28:41.201Z,8.29
2018-05-01T00:29:46.704Z,8.29
2018-05-01T00:30:52.219Z,8.18
2018-05-01T00:31:57.723Z,8.17
2018-05-01T00:33:03.233Z,8.25
2018-05-01T00:34:08.746Z,8.18
2018-05-01T00:35:14.255Z,8.14
2018-05-01T00:36:19.772Z,8.22
2018-05-01T00:37:25.358Z,8.17
2018-05-01T00:38:30.794Z,8.18
2018-05-01T00:39:36.321Z,8.32
2018-05-01T00:40:41.810Z,8.18
2018-05-01T00:41:47.307Z,8.18
2018-05-01T00:42:52.816Z,8.15
2018-05-01T00:43:58.328Z,8.21
2018-05-01T00:45:03.836Z,8.20
2018-05-01T00:46:09.347Z,8.20
2018-05-01T00:47:14.864Z,8.12
2018-05-01T00:48:20.366Z,8.18
2018-05-01T00:49:25.880Z,8.18
2018-05-01T00:50:31.384Z,8.25
2018-05-01T00:51:37.054Z,8.17
2018-05-01T00:52:42.406Z,8.15
2018-05-01T00:53:47.914Z,8.14
2018-05-01T00:54:53.422Z,8.20
2018-05-01T00:55:58.944Z,8.21
2018-05-01T00:57:04.445Z,8.18
2018-05-01T00:58:09.959Z,8.18
2018-05-01T00:59:15.457Z,8.22
2018-05-01T01:00:20.966Z,8.20
2018-05-01T01:01:26.477Z,8.20
2018-05-01T01:02:31.988Z,8.12
2018-05-01T01:03:37.559Z,8.15
2018-05-01T01:04:43.009Z,8.20
2018-05-01T01:05:48.516Z,8.07
2018-05-01T01:06:54.025Z,8.11
2018-05-01T01:07:59.538Z,8.18
2018-05-01T01:09:05.051Z,8.10
2018-05-01T01:10:10.555Z,8.17
2018-05-01T01:11:16.065Z,8.15
2018-05-01T01:12:21.578Z,8.15
2018-05-01T01:13:27.086Z,8.15
2018-05-01T01:14:32.599Z,8.08
2018-05-01T01:15:38.110Z,8.08
2018-05-01T01:16:43.613Z,8.11
2018-05-01T01:17:49.119Z,8.03
2018-05-01T01:18:54.629Z,8.02
2018-05-01T01:20:00.141Z,8.04
2018-05-01T01:21:05.703Z,8.14
2018-05-01T01:22:11.161Z,8.12
2018-05-01T01:23:16.668Z,8.07
2018-05-01T01:24:22.175Z,8.07
2018-05-01T01:25:27.694Z,8.11
2018-05-01T01:26:33.198Z,8.11
2018-05-01T01:27:38.704Z,8.08
2018-05-01T01:28:44.219Z,8.10
2018-05-01T01:29:49.721Z,8.08
2018-05-01T01:30:55.233Z,8.02
2018-05-01T01:32:00.747Z,8.03
2018-05-01T01:33:06.248Z,8.02
2018-05-01T01:34:11.762Z,7.97
2018-05-01T01:35:17.269Z,8.00
2018-05-01T01:36:22.777Z,8.00
2018-05-01T01:37:28.288Z,8.00
2018-05-01T01:38:33.795Z,7.82
2018-05-01T01:39:39.314Z,7.90
2018-05-01T01:40:44.820Z,7.90
2018-05-01T01:41:50.325Z,7.96
2018-05-01T01:42:55.838Z,7.94
2018-05-01T01:44:01.349Z,7.94
2018-05-01T01:45:06.851Z,7.94
2018-05-01T01:46:12.365Z,8.03
2018-05-01T01:47:17.881Z,8.04
2018-05-01T01:48:23.381Z,7.94
2018-05-01T01:49:28.887Z,7.93
2018-05-01T01:50:34.406Z,7.96
2018-05-01T01:51:39.908Z,7.90
2018-05-01T01:52:45.418Z,7.94
2018-05-01T01:53:50.930Z,7.92
2018-05-01T01:54:56.456Z,7.94
2018-05-01T01:56:01.948Z,7.92
2018-05-01T01:57:07.464Z,7.93
2018-05-01T01:58:12.967Z,7.93
2018-05-01T01:59:18.478Z,7.90
2018-05-01T02:00:23.984Z,7.93
2018-05-01T02:01:29.505Z,7.87
2018-05-01T02:02:35.001Z,7.87
2018-05-01T02:03:40.514Z,7.89
2018-05-01T02:04:46.021Z,7.82
2018-05-01T02:05:51.533Z,7.92
2018-05-01T02:06:57.050Z,7.85
2018-05-01T02:08:02.553Z,7.89
2018-05-01T02:09:08.059Z,7.90
2018-05-01T02:10:13.569Z,7.92
2018-05-01T02:11:19.074Z,7.94
2018-05-01T02:12:24.590Z,7.90
2018-05-01T02:13:30.093Z,7.93
2018-05-01T02:14:35.603Z,7.90
2018-05-01T02:15:41.120Z,7.89
2018-05-01T02:16:46.622Z,7.90
2018-05-01T02:17:52.138Z,7.94
2018-05-01T02:18:57.648Z,7.90
2018-05-01T02:20:03.148Z,7.82
2018-05-01T02:21:08.657Z,7.90
2018-05-01T02:22:14.167Z,7.92
2018-05-01T02:23:19.688Z,7.92
2018-05-01T02:24:25.187Z,7.94
2018-05-01T02:25:30.700Z,7.93
2018-05-01T02:26:36.215Z,7.87
2018-05-01T02:27:41.713Z,7.92
2018-05-01T02:28:47.225Z,7.94
2018-05-01T02:29:52.729Z,7.90
2018-05-01T02:30:58.248Z,7.90
2018-05-01T02:32:03.760Z,7.93
2018-05-01T02:33:09.259Z,7.92
2018-05-01T02:34:14.768Z,7.94
2018-05-01T02:35:20.285Z,7.92
2018-05-01T02:36:25.796Z,7.99
2018-05-01T02:37:31.302Z,7.93
2018-05-01T02:38:36.807Z,7.97
2018-05-01T02:39:42.323Z,7.93
2018-05-01T02:40:47.831Z,7.99
2018-05-01T02:41:53.334Z,8.04
2018-05-01T02:42:58.841Z,8.00
2018-05-01T02:44:04.361Z,8.02
2018-05-01T02:45:09.862Z,7.99
2018-05-01T02:46:15.373Z,7.94
2018-05-01T02:47:20.890Z,7.99
2018-05-01T02:48:26.387Z,8.02
2018-05-01T02:49:31.898Z,7.97
2018-05-01T02:50:37.409Z,7.99
2018-05-01T02:51:42.918Z,7.92
2018-05-01T02:52:48.423Z,7.90
2018-05-01T02:53:53.941Z,7.94
2018-05-01T02:54:59.450Z,7.93
2018-05-01T02:56:04.951Z,7.79
2018-05-01T02:57:10.463Z,7.82
2018-05-01T02:58:15.980Z,7.90
2018-05-01T02:59:21.482Z,7.93
2018-05-01T03:00:26.998Z,7.93
2018-05-01T03:01:32.497Z,7.97
2018-05-01T03:02:38.010Z,7.93
2018-05-01T03:03:43.520Z,7.94
2018-05-01T03:04:49.027Z,7.93
2018-05-01T03:05:54.538Z,8.00
2018-05-01T03:07:00.046Z,8.00
2018-05-01T03:08:05.557Z,8.02
2018-05-01T03:09:11.160Z,7.97
2018-05-01T03:10:16.577Z,8.04
2018-05-01T03:11:22.090Z,7.92
2018-05-01T03:12:27.647Z,7.97
2018-05-01T03:13:33.101Z,7.89
2018-05-01T03:14:38.607Z,7.93
2018-05-01T03:15:44.125Z,7.92
2018-05-01T03:16:49.632Z,7.97
2018-05-01T03:17:55.134Z,7.94
2018-05-01T03:19:00.648Z,7.93
2018-05-01T03:20:06.156Z,7.94
2018-05-01T03:21:11.672Z,7.97
2018-05-01T03:22:17.178Z,7.99
2018-05-01T03:23:22.688Z,7.93
2018-05-01T03:24:28.192Z,7.93
2018-05-01T03:25:33.699Z,7.92
2018-05-01T03:26:39.215Z,7.93
2018-05-01T03:27:44.722Z,7.94
2018-05-01T03:28:50.233Z,7.93
2018-05-01T03:29:55.739Z,7.93
2018-05-01T03:31:01.249Z,7.96
2018-05-01T03:32:06.756Z,7.97
2018-05-01T03:33:12.269Z,7.92
2018-05-01T03:34:17.783Z,7.92
2018-05-01T03:35:23.283Z,7.93
2018-05-01T03:36:28.793Z,7.93
2018-05-01T03:37:34.307Z,7.81
2018-05-01T03:38:39.818Z,7.84
2018-05-01T03:39:45.319Z,7.82
2018-05-01T03:40:50.836Z,7.85
2018-05-01T03:41:56.336Z,7.82
2018-05-01T03:43:01.852Z,7.79
2018-05-01T03:44:07.374Z,7.84
2018-05-01T03:45:12.869Z,7.79
2018-05-01T03:46:18.378Z,7.94
2018-05-01T03:47:23.886Z,7.89
2018-05-01T03:48:29.392Z,7.92
2018-05-01T03:49:34.960Z,7.79
2018-05-01T03:50:40.425Z,7.82
2018-05-01T03:51:45.919Z,7.85
2018-05-01T03:52:51.490Z,7.82
2018-05-01T03:53:56.941Z,7.82
2018-05-01T03:55:02.449Z,7.93
2018-05-01T03:56:07.999Z,7.93
2018-05-01T03:57:13.465Z,7.93
2018-05-01T03:58:19.027Z,7.92
2018-05-01T03:59:24.487Z,7.92
2018-05-01T04:00:29.994Z,7.90
2018-05-01T04:01:35.510Z,7.96
2018-05-01T04:02:41.012Z,8.02
2018-05-01T04:03:46.521Z,7.99
2018-05-01T04:04:52.035Z,7.94
2018-05-01T04:05:57.538Z,7.94
2018-05-01T04:07:03.048Z,7.99
2018-05-01T04:08:08.557Z,7.89
2018-05-01T04:09:14.068Z,7.93
2018-05-01T04:10:19.576Z,7.94
2018-05-01T04:11:25.086Z,7.99
2018-05-01T04:12:30.601Z,8.03
2018-05-01T04:13:36.101Z,8.04
2018-05-01T04:14:41.613Z,8.00
2018-05-01T04:15:47.124Z,8.00
2018-05-01T04:16:52.640Z,8.03
2018-05-01T04:17:58.142Z,8.02
2018-05-01T04:19:03.661Z,8.04
2018-05-01T04:20:09.159Z,8.02
2018-05-01T04:21:14.669Z,7.97
2018-05-01T04:22:20.179Z,8.02
2018-05-01T04:23:25.690Z,7.99
2018-05-01T04:24:31.197Z,8.00
2018-05-01T04:25:36.703Z,8.02
2018-05-01T04:26:42.218Z,7.97
2018-05-01T04:27:47.724Z,7.99
2018-05-01T04:28:53.237Z,7.97
2018-05-01T04:29:58.742Z,8.00
2018-05-01T04:31:04.251Z,8.02
2018-05-01T04:32:09.767Z,8.00
2018-05-01T04:33:15.276Z,8.00
2018-05-01T04:34:20.787Z,8.02
2018-05-01T04:35:26.291Z,8.02
2018-05-01T04:36:31.800Z,8.02
2018-05-01T04:37:37.310Z,8.04
2018-05-01T04:38:42.817Z,8.03
2018-05-01T04:39:48.323Z,7.99
2018-05-01T04:40:53.837Z,8.04
2018-05-01T04:41:59.343Z,8.08
2018-05-01T04:43:04.852Z,8.08
2018-05-01T04:44:10.362Z,8.10
2018-05-01T04:45:15.876Z,8.11
2018-05-01T04:46:21.380Z,8.14
2018-05-01T04:47:26.890Z,8.02
2018-05-01T04:48:32.408Z,8.11
2018-05-01T04:49:37.920Z,8.11
2018-05-01T04:50:43.425Z,8.11
2018-05-01T04:51:49.021Z,8.10
2018-05-01T04:52:54.441Z,8.10
2018-05-01T04:53:59.944Z,8.20
2018-05-01T04:55:05.456Z,8.08
2018-05-01T04:56:10.963Z,8.18
2018-05-01T04:57:16.478Z,8.04
2018-05-01T04:58:21.983Z,8.12
2018-05-01T04:59:27.502Z,8.14
2018-05-01T05:00:33.001Z,8.15
2018-05-01T05:01:38.513Z,8.20
2018-05-01T05:02:44.020Z,8.17
2018-05-01T05:03:49.592Z,8.17
2018-05-01T05:04:55.038Z,8.11
2018-05-01T05:06:00.555Z,8.17
2018-05-01T05:07:06.056Z,8.17
2018-05-01T05:08:11.573Z,8.22
2018-05-01T05:09:17.076Z,8.14
2018-05-01T05:10:22.582Z,8.18
2018-05-01T05:11:28.091Z,8.20
2018-05-01T05:12:33.612Z,8.18
2018-05-01T05:13:39.114Z,8.15
2018-05-01T05:14:44.630Z,8.25
2018-05-01T05:15:50.134Z,8.21
2018-05-01T05:16:55.643Z,8.20
2018-05-01T05:18:01.151Z,8.28
2018-05-01T05:19:06.660Z,8.28
2018-05-01T05:20:12.174Z,8.25
2018-05-01T05:21:17.695Z,8.22
2018-05-01T05:22:23.190Z,8.29
2018-05-01T05:23:28.700Z,8.25
2018-05-01T05:24:34.207Z,8.26
2018-05-01T05:25:39.717Z,8.28
2018-05-01T05:26:45.237Z,8.20
2018-05-01T05:27:50.745Z,8.20
2018-05-01T05:28:56.247Z,8.21
2018-05-01T05:30:01.754Z,8.21
2018-05-01T05:31:07.265Z,8.18
2018-05-01T05:32:12.772Z,8.17
2018-05-01T05:33:18.282Z,8.21
2018-05-01T05:34:23.803Z,8.18
2018-05-01T05:35:29.298Z,8.12
2018-05-01T05:36:34.810Z,8.20
2018-05-01T05:37:40.320Z,8.26
2018-05-01T05:38:45.833Z,8.15
2018-05-01T05:39:51.338Z,8.26
2018-05-01T05:40:56.848Z,8.25
2018-05-01T05:42:02.355Z,8.26
2018-05-01T05:43:07.880Z,8.25
2018-05-01T05:44:13.374Z,8.25
2018-05-01T05:45:18.885Z,8.25
2018-05-01T05:46:24.400Z,8.28
2018-05-01T05:47:29.943Z,8.29
2018-05-01T05:48:35.417Z,8.30
2018-05-01T05:49:40.926Z,8.32
2018-05-01T05:50:46.436Z,8.25
2018-05-01T05:51:51.940Z,8.28
2018-05-01T05:52:57.452Z,8.22
2018-05-01T05:54:02.963Z,8.22
2018-05-01T05:55:08.470Z,8.26
2018-05-01T05:56:13.985Z,8.29
2018-05-01T05:57:19.490Z,8.28
2018-05-01T05:58:24.999Z,8.33
2018-05-01T05:59:30.509Z,8.30
2018-05-01T06:00:36.017Z,8.33
2018-05-01T06:01:41.531Z,8.36
2018-05-01T06:02:47.036Z,8.29
2018-05-01T06:03:52.548Z,8.36
2018-05-01T06:04:58.058Z,8.30
2018-05-01T06:06:03.562Z,8.30
2018-05-01T06:07:09.072Z,8.30
2018-05-01T06:08:14.588Z,8.32
2018-05-01T06:09:20.091Z,8.30
2018-05-01T06:10:25.642Z,8.32
2018-05-01T06:11:31.111Z,8.33
2018-05-01T06:12:36.622Z,8.30
2018-05-01T06:13:42.195Z,8.25
2018-05-01T06:14:47.639Z,8.29
2018-05-01T06:15:53.155Z,8.39
2018-05-01T06:16:58.656Z,8.29
2018-05-01T06:18:04.178Z,8.39
2018-05-01T06:19:09.678Z,8.36
2018-05-01T06:20:15.188Z,8.40
2018-05-01T06:21:20.695Z,8.35
2018-05-01T06:22:26.216Z,8.35
2018-05-01T06:23:31.715Z,8.37
2018-05-01T06:24:37.229Z,8.44
2018-05-01T06:25:42.813Z,8.40
2018-05-01T06:26:48.247Z,8.42
2018-05-01T06:27:53.757Z,8.45
2018-05-01T06:28:59.267Z,8.47
2018-05-01T06:30:04.769Z,8.50
2018-05-01T06:31:10.326Z,8.48
2018-05-01T06:32:15.795Z,8.58
2018-05-01T06:33:21.299Z,8.51
2018-05-01T06:34:26.810Z,8.55
2018-05-01T06:35:32.320Z,8.60
2018-05-01T06:36:37.827Z,8.58
2018-05-01T06:37:43.337Z,8.65
2018-05-01T06:38:48.846Z,8.62
2018-05-01T06:39:54.356Z,8.69
2018-05-01T06:40:59.879Z,8.63
2018-05-01T06:42:05.380Z,8.69
2018-05-01T06:43:10.885Z,8.78
2018-05-01T06:44:16.397Z,8.76
2018-05-01T06:45:21.907Z,8.86
2018-05-01T06:46:27.413Z,8.78
2018-05-01T06:47:32.927Z,8.84
2018-05-01T06:48:38.434Z,8.96
2018-05-01T06:49:43.952Z,8.96
2018-05-01T06:50:49.510Z,8.90
2018-05-01T06:51:54.974Z,8.97
2018-05-01T06:53:00.479Z,8.97
2018-05-01T06:54:05.985Z,9.02
2018-05-01T06:55:11.499Z,8.99
2018-05-01T06:56:17.000Z,8.86
2018-05-01T06:57:22.511Z,8.87
2018-05-01T06:58:28.026Z,8.88
2018-05-01T06:59:33.538Z,8.91
2018-05-01T07:00:39.042Z,8.96
2018-05-01T07:01:44.557Z,8.88
2018-05-01T07:02:50.074Z,8.93
2018-05-01T07:03:55.578Z,9.01
2018-05-01T07:05:01.083Z,8.99
2018-05-01T07:06:06.602Z,8.96
2018-05-01T07:07:12.099Z,9.01
2018-05-01T07:08:17.628Z,8.97
2018-05-01T07:09:23.122Z,8.93
2018-05-01T07:10:28.633Z,8.99
2018-05-01T07:11:34.136Z,8.94
2018-05-01T07:12:39.651Z,9.01
2018-05-01T07:13:45.159Z,8.91
2018-05-01T07:14:50.670Z,8.93
2018-05-01T07:15:56.215Z,8.93
2018-05-01T07:17:01.688Z,8.93
2018-05-01T07:18:07.196Z,8.94
2018-05-01T07:19:12.719Z,9.02
2018-05-01T07:20:18.217Z,9.01
2018-05-01T07:21:23.728Z,9.04
2018-05-01T07:22:29.254Z,9.09
2018-05-01T07:23:34.747Z,9.10
2018-05-01T07:24:40.258Z,9.05
2018-05-01T07:25:45.767Z,9.12
2018-05-01T07:26:51.278Z,9.09
2018-05-01T07:27:56.793Z,9.05
2018-05-01T07:29:02.307Z,9.06
2018-05-01T07:30:07.807Z,9.20
2018-05-01T07:31:13.320Z,9.24
2018-05-01T07:32:18.832Z,9.32
2018-05-01T07:33:24.346Z,9.39
2018-05-01T07:34:29.847Z,9.43
2018-05-01T07:35:35.415Z,9.58
2018-05-01T07:36:40.914Z,9.53
2018-05-01T07:37:46.375Z,9.64
2018-05-01T07:38:51.952Z,9.70
2018-05-01T07:39:57.407Z,9.61
2018-05-01T07:41:02.909Z,9.67
2018-05-01T07:42:08.421Z,9.70
2018-05-01T07:43:13.934Z,9.78
2018-05-01T07:44:19.445Z,9.79
2018-05-01T07:45:24.948Z,9.83
2018-05-01T07:46:30.466Z,9.89
2018-05-01T07:47:35.974Z,9.94
2018-05-01T07:48:41.487Z,9.86
2018-05-01T07:49:46.990Z,10.00
2018-05-01T07:50:52.508Z,9.97
2018-05-01T07:51:58.015Z,10.01
2018-05-01T07:53:03.528Z,10.01
2018-05-01T07:54:09.032Z,10.09
2018-05-01T07:55:14.542Z,10.12
2018-05-01T07:56:20.059Z,10.04
2018-05-01T07:57:25.561Z,10.07
2018-05-01T07:58:31.073Z,10.09
2018-05-01T07:59:36.585Z,10.17
2018-05-01T08:00:42.096Z,10.19
2018-05-01T08:01:47.614Z,10.17
2018-05-01T08:02:53.115Z,10.19
2018-05-01T08:03:58.626Z,10.28
2018-05-01T08:05:04.137Z,10.39
2018-05-01T08:06:09.652Z,10.43
2018-05-01T08:07:15.157Z,10.44
2018-05-01T08:08:20.672Z,10.30
2018-05-01T08:09:26.189Z,10.30
2018-05-01T08:10:31.699Z,10.46
2018-05-01T08:11:37.204Z,10.53
2018-05-01T08:12:42.719Z,10.59
2018-05-01T08:13:48.221Z,10.56
2018-05-01T08:14:53.733Z,10.56
2018-05-01T08:15:59.247Z,10.65
2018-05-01T08:17:04.757Z,10.55
2018-05-01T08:18:10.271Z,10.65
2018-05-01T08:19:15.779Z,10.62
2018-05-01T08:20:21.288Z,10.56
2018-05-01T08:21:26.798Z,10.53
2018-05-01T08:22:32.308Z,10.59
2018-05-01T08:23:37.832Z,10.70
2018-05-01T08:24:43.336Z,10.65
2018-05-01T08:25:48.840Z,10.77
2018-05-01T08:26:54.360Z,10.77
2018-05-01T08:27:59.871Z,10.81
2018-05-01T08:29:05.378Z,10.83
2018-05-01T08:30:10.885Z,10.83
2018-05-01T08:31:16.397Z,11.01
2018-05-01T08:32:21.908Z,10.89
2018-05-01T08:33:27.426Z,11.02
2018-05-01T08:34:32.930Z,11.16
2018-05-01T08:35:38.438Z,11.14
2018-05-01T08:36:43.956Z,11.10
2018-05-01T08:37:49.468Z,11.10
2018-05-01T08:38:54.976Z,11.16
2018-05-01T08:40:00.485Z,11.19
2018-05-01T08:41:06.004Z,11.21
2018-05-01T08:42:11.507Z,11.32
2018-05-01T08:43:17.030Z,11.36
2018-05-01T08:44:22.544Z,11.47
2018-05-01T08:45:28.046Z,11.54
2018-05-01T08:46:33.557Z,11.49
2018-05-01T08:47:39.180Z,11.36
2018-05-01T08:48:44.574Z,11.43
2018-05-01T08:49:50.088Z,11.39
2018-05-01T08:50:55.605Z,11.54
2018-05-01T08:52:01.115Z,11.54
2018-05-01T08:53:06.631Z,11.49
2018-05-01T08:54:12.135Z,11.49
2018-05-01T08:55:17.651Z,11.59
2018-05-01T08:56:23.156Z,11.57
2018-05-01T08:57:28.705Z,11.54
2018-05-01T08:58:34.184Z,11.59
2018-05-01T08:59:39.699Z,11.82
2018-05-01T09:00:45.203Z,11.72
2018-05-01T09:01:50.718Z,11.86
2018-05-01T09:02:56.223Z,11.90
2018-05-01T09:04:01.745Z,11.99
2018-05-01T09:05:07.250Z,12.02
2018-05-01T09:06:12.758Z,12.12
2018-05-01T09:07:18.277Z,12.11
2018-05-01T09:08:23.782Z,12.19
2018-05-01T09:09:29.372Z,12.23
2018-05-01T09:10:34.804Z,12.20
2018-05-01T09:11:40.317Z,12.23
2018-05-01T09:12:45.828Z,12.29
2018-05-01T09:13:51.343Z,12.27
2018-05-01T09:14:56.855Z,12.31
2018-05-01T09:16:02.375Z,12.44
2018-05-01T09:17:07.880Z,12.45
2018-05-01T09:18:13.416Z,12.51
2018-05-01T09:19:18.909Z,12.48
2018-05-01T09:20:24.414Z,12.56
2018-05-01T09:21:29.926Z,12.56
2018-05-01T09:22:35.439Z,12.57
2018-05-01T09:23:40.947Z,12.57
2018-05-01T09:24:46.458Z,12.57
2018-05-01T09:25:51.979Z,12.54
2018-05-01T09:26:57.492Z,12.59
2018-05-01T09:28:02.999Z,12.57
2018-05-01T09:29:08.522Z,12.60
2018-05-01T09:30:14.028Z,12.59
2018-05-01T09:31:19.540Z,12.60
2018-05-01T09:32:25.047Z,12.78
2018-05-01T09:33:30.557Z,12.75
2018-05-01T09:34:36.068Z,12.81
2018-05-01T09:35:41.587Z,12.84
2018-05-01T09:36:47.098Z,12.96
2018-05-01T09:37:52.615Z,12.95
2018-05-01T09:38:58.126Z,12.95
2018-05-01T09:40:03.641Z,13.03
2018-05-01T09:41:09.143Z,12.87
2018-05-01T09:42:14.692Z,12.99
2018-05-01T09:43:20.167Z,12.99
2018-05-01T09:44:25.700Z,13.04
2018-05-01T09:45:31.197Z,13.11
2018-05-01T09:46:36.715Z,13.15
2018-05-01T09:47:42.324Z,13.11
2018-05-01T09:48:47.731Z,13.22
2018-05-01T09:49:53.248Z,12.93
2018-05-01T09:50:58.765Z,13.03
2018-05-01T09:52:04.282Z,13.06
2018-05-01T09:53:09.786Z,13.04
2018-05-01T09:54:15.297Z,13.06
2018-05-01T09:55:20.809Z,12.97
2018-05-01T09:56:26.318Z,13.03
2018-05-01T09:57:31.834Z,13.07
2018-05-01T09:58:37.344Z,13.18
2018-05-01T09:59:42.867Z,13.22
2018-05-01T10:00:48.375Z,13.24
2018-05-01T10:01:53.884Z,13.27
2018-05-01T10:02:59.421Z,13.36
2018-05-01T10:04:04.908Z,13.21
2018-05-01T10:05:10.435Z,13.12
2018-05-01T10:06:15.930Z,13.20
2018-05-01T10:07:21.445Z,13.25
2018-05-01T10:08:26.965Z,13.25
2018-05-01T10:09:32.482Z,13.29
2018-05-01T10:10:37.983Z,13.32
2018-05-01T10:11:43.499Z,13.29
2018-05-01T10:12:49.030Z,13.40
2018-05-01T10:13:54.528Z,13.41
2018-05-01T10:15:00.053Z,13.46
2018-05-01T10:16:05.547Z,13.55
2018-05-01T10:17:11.064Z,13.63
2018-05-01T10:18:16.571Z,13.62
2018-05-01T10:19:22.089Z,13.67
2018-05-01T10:20:27.739Z,13.56
2018-05-01T10:21:33.108Z,13.61
2018-05-01T10:22:38.629Z,13.59
2018-05-01T10:23:44.147Z,13.59
2018-05-01T10:24:49.650Z,13.54
2018-05-01T10:25:55.186Z,13.54
2018-05-01T10:27:00.668Z,13.52
2018-05-01T10:28:06.191Z,13.55
2018-05-01T10:29:11.713Z,13.49
2018-05-01T10:30:17.214Z,13.52
2018-05-01T10:31:22.733Z,13.56
2018-05-01T10:32:28.234Z,13.49
2018-05-01T10:33:33.758Z,13.54
2018-05-01T10:34:39.267Z,13.58
2018-05-01T10:35:44.777Z,13.55
2018-05-01T10:36:50.292Z,13.58
2018-05-01T10:37:55.806Z,13.52
2018-05-01T10:39:01.336Z,13.54
2018-05-01T10:40:06.830Z,13.59
2018-05-01T10:41:12.346Z,13.56
2018-05-01T10:42:17.857Z,13.67
2018-05-01T10:43:23.369Z,13.70
2018-05-01T10:44:28.880Z,13.70
2018-05-01T10:45:34.394Z,13.59
2018-05-01T10:46:39.912Z,13.69
2018-05-01T10:47:45.422Z,13.69
2018-05-01T10:48:50.936Z,13.71
2018-05-01T10:49:56.448Z,13.67
2018-05-01T10:51:01.963Z,13.89
2018-05-01T10:52:07.475Z,13.89
2018-05-01T10:53:12.995Z,13.77
2018-05-01T10:54:18.506Z,13.77
2018-05-01T10:55:24.007Z,13.81
2018-05-01T10:56:29.521Z,13.91
2018-05-01T10:57:35.048Z,13.87
2018-05-01T10:58:40.546Z,13.92
2018-05-01T10:59:46.055Z,13.83
2018-05-01T11:00:51.583Z,14.01
2018-05-01T11:01:57.082Z,14.04
2018-05-01T11:03:02.613Z,14.10
2018-05-01T11:04:08.224Z,13.89
2018-05-01T11:05:13.636Z,13.88
2018-05-01T11:06:19.146Z,13.95
2018-05-01T11:07:24.651Z,13.81
2018-05-01T11:08:30.249Z,13.81
2018-05-01T11:09:35.681Z,13.79
2018-05-01T11:10:41.190Z,13.81
2018-05-01T11:11:46.700Z,13.98
2018-05-01T11:12:52.223Z,14.01
2018-05-01T11:13:57.726Z,13.99
2018-05-01T11:15:03.250Z,13.98
2018-05-01T11:16:08.757Z,14.07
2018-05-01T11:17:14.267Z,14.06
2018-05-01T11:18:19.784Z,14.07
2018-05-01T11:19:25.317Z,14.12
2018-05-01T11:20:30.805Z,14.21
2018-05-01T11:21:36.335Z,14.20
2018-05-01T11:22:41.834Z,14.42
2018-05-01T11:23:47.345Z,14.38
2018-05-01T11:24:52.868Z,14.35
2018-05-01T11:25:58.464Z,14.38
2018-05-01T11:27:03.915Z,14.38
2018-05-01T11:28:09.411Z,14.37
2018-05-01T11:29:14.914Z,14.42
2018-05-01T11:30:20.464Z,14.39
2018-05-01T11:31:25.943Z,14.35
2018-05-01T11:32:31.466Z,14.37
2018-05-01T11:33:36.973Z,14.34
2018-05-01T11:34:42.487Z,14.42
2018-05-01T11:35:47.993Z,14.39
2018-05-01T11:36:53.511Z,14.34
2018-05-01T11:37:59.027Z,14.35
2018-05-01T11:39:04.534Z,14.53
2018-05-01T11:40:10.044Z,14.44
2018-05-01T11:41:15.656Z,14.53
2018-05-01T11:42:21.071Z,14.46
2018-05-01T11:43:26.592Z,14.47
2018-05-01T11:44:32.102Z,14.57
2018-05-01T11:45:37.615Z,14.64
2018-05-01T11:46:43.127Z,14.71
2018-05-01T11:47:48.653Z,14.83
2018-05-01T11:48:54.153Z,14.86
2018-05-01T11:49:59.666Z,14.81
2018-05-01T11:51:05.181Z,14.74
2018-05-01T11:52:10.701Z,14.84
2018-05-01T11:53:16.204Z,14.98
2018-05-01T11:54:21.728Z,15.02
2018-05-01T11:55:27.239Z,15.02
2018-05-01T11:56:32.749Z,15.03
2018-05-01T11:57:38.262Z,15.15
2018-05-01T11:58:43.780Z,15.28
2018-05-01T11:59:49.301Z,15.31
2018-05-01T12:00:54.806Z,15.26
2018-05-01T12:02:00.318Z,15.28
2018-05-01T12:03:05.827Z,15.33
2018-05-01T12:04:11.347Z,15.28
2018-05-01T12:05:16.860Z,15.39
2018-05-01T12:06:22.369Z,15.26
2018-05-01T12:07:27.907Z,15.28
2018-05-01T12:08:33.412Z,15.30
2018-05-01T12:09:38.920Z,15.24
2018-05-01T12:10:44.427Z,15.39
2018-05-01T12:11:49.960Z,15.46
2018-05-01T12:12:55.456Z,15.45
2018-05-01T12:14:01.016Z,15.48
2018-05-01T12:15:06.484Z,15.46
2018-05-01T12:16:12.006Z,15.56
2018-05-01T12:17:17.517Z,15.67
2018-05-01T12:18:23.025Z,15.82
2018-05-01T12:19:28.545Z,15.79
2018-05-01T12:20:34.056Z,15.84
2018-05-01T12:21:39.577Z,15.94
2018-05-01T12:22:45.099Z,16.07
2018-05-01T12:23:50.605Z,16.01
2018-05-01T12:24:56.113Z,16.09
2018-05-01T12:26:01.641Z,16.01
2018-05-01T12:27:07.140Z,16.22
2018-05-01T12:28:12.662Z,16.31
2018-05-01T12:29:18.169Z,16.42
2018-05-01T12:30:23.690Z,16.48
2018-05-01T12:31:29.195Z,16.48
2018-05-01T12:32:34.726Z,16.42
2018-05-01T12:33:40.224Z,16.55
2018-05-01T12:34:45.740Z,16.58
2018-05-01T12:35:51.254Z,16.58
2018-05-01T12:36:56.958Z,16.67
2018-05-01T12:38:02.297Z,16.74
2018-05-01T12:39:07.805Z,16.77
2018-05-01T12:40:13.316Z,16.85
2018-05-01T12:41:18.849Z,16.80
2018-05-01T12:42:24.356Z,16.88
2018-05-01T12:43:29.862Z,16.95
2018-05-01T12:44:35.454Z,16.95
2018-05-01T12:45:40.891Z,16.98
2018-05-01T12:46:46.407Z,16.98
2018-05-01T12:47:51.933Z,16.99
2018-05-01T12:48:57.439Z,16.96
2018-05-01T12:50:02.948Z,16.93
2018-05-01T12:51:08.479Z,16.93
2018-05-01T12:52:13.975Z,17.00
2018-05-01T12:53:19.492Z,17.06
2018-05-01T12:54:25.008Z,16.99
2018-05-01T12:55:30.530Z,17.07
2018-05-01T12:56:36.054Z,17.08
2018-05-01T12:57:41.553Z,17.15
2018-05-01T12:58:47.067Z,17.04
2018-05-01T12:59:52.601Z,17.10
2018-05-01T13:00:58.107Z,17.13
2018-05-01T13:02:03.632Z,17.15
2018-05-01T13:03:09.133Z,17.22
2018-05-01T13:04:14.648Z,17.18
2018-05-01T13:05:20.161Z,17.14
2018-05-01T13:06:25.684Z,17.15
2018-05-01T13:07:31.193Z,17.15
2018-05-01T13:08:36.710Z,17.22
2018-05-01T13:09:42.236Z,17.30
2018-05-01T13:10:47.744Z,17.36
2018-05-01T13:11:53.261Z,17.38
2018-05-01T13:12:58.770Z,17.40
2018-05-01T13:14:04.281Z,17.36
2018-05-01T13:15:09.798Z,17.36
2018-05-01T13:16:15.321Z,17.38
2018-05-01T13:17:20.832Z,17.40
2018-05-01T13:18:26.351Z,17.26
2018-05-01T13:19:31.865Z,17.17
2018-05-01T13:20:37.445Z,17.13
2018-05-01T13:21:42.894Z,17.30
2018-05-01T13:22:48.405Z,17.26
2018-05-01T13:23:53.930Z,17.32
2018-05-01T13:24:59.437Z,17.33
2018-05-01T13:26:04.950Z,17.43
2018-05-01T13:27:10.465Z,17.38
2018-05-01T13:28:15.987Z,17.43
2018-05-01T13:29:21.508Z,17.35
2018-05-01T13:30:27.020Z,17.36
2018-05-01T13:31:32.532Z,17.40
2018-05-01T13:32:38.137Z,17.48
2018-05-01T13:33:43.571Z,17.48
2018-05-01T13:34:49.080Z,17.50
2018-05-01T13:35:54.592Z,17.46
2018-05-01T13:37:00.113Z,17.57
2018-05-01T13:38:05.632Z,17.59
2018-05-01T13:39:11.143Z,17.59
2018-05-01T13:40:16.660Z,17.67
2018-05-01T13:41:22.176Z,17.67
2018-05-01T13:42:27.697Z,17.71
2018-05-01T13:43:33.203Z,17.70
2018-05-01T13:44:38.718Z,17.79
2018-05-01T13:45:44.241Z,17.87
2018-05-01T13:46:49.748Z,17.89
2018-05-01T13:47:55.269Z,17.74
2018-05-01T13:49:00.821Z,17.78
2018-05-01T13:50:06.297Z,17.76
2018-05-01T13:51:11.806Z,17.74
2018-05-01T13:52:17.325Z,17.59
2018-05-01T13:53:22.849Z,17.62
2018-05-01T13:54:28.426Z,17.47
2018-05-01T13:55:33.877Z,17.48
2018-05-01T13:56:39.394Z,17.50
2018-05-01T13:57:44.932Z,17.48
2018-05-01T13:58:50.416Z,17.35
2018-05-01T13:59:55.934Z,17.40
2018-05-01T14:01:01.456Z,17.38
2018-05-01T14:02:06.977Z,17.33
2018-05-01T14:03:12.477Z,17.30
2018-05-01T14:04:18.004Z,17.25
2018-05-01T14:05:23.511Z,17.17
2018-05-01T14:06:29.073Z,17.25
2018-05-01T14:07:34.546Z,17.17
2018-05-01T14:08:40.061Z,17.23
2018-05-01T14:09:45.579Z,17.15
2018-05-01T14:10:51.094Z,17.08
2018-05-01T14:11:56.604Z,17.10
2018-05-01T14:13:02.148Z,17.03
2018-05-01T14:14:07.633Z,17.03
2018-05-01T14:15:13.169Z,17.04
2018-05-01T14:16:18.668Z,16.96
2018-05-01T14:17:24.191Z,16.93
2018-05-01T14:18:29.699Z,16.98